sensor_id;sensor_type;location;lat;lon;timestamp;P1;durP1;ratioP1;P2;durP2;ratioP2
18949;SDS011;9608;49.288;8.130;2024-01-25T00:00:50;1.20;;;0.20;;
18949;SDS011;9608;49.288;8.130;2024-01-25T00:03:17;5.33;;;2.10;;
18949;SDS011;9608;49.288;8.130;2024-01-25T00:05:43;6.20;;;1.53;;
18949;SDS011;9608;49.288;8.130;2024-01-25T00:08:10;4.80;;;0.90;;
18949;SDS011;9608;49.288;8.130;2024-01-25T00:10:37;19.43;;;2.27;;
18949;SDS011;9608;49.288;8.130;2024-01-25T00:13:04;14.60;;;2.63;;
18949;SDS011;9608;49.288;8.130;2024-01-25T00:15:30;5.93;;;2.20;;
18949;SDS011;9608;49.288;8.130;2024-01-25T00:17:59;1.80;;;0.63;;
18949;SDS011;9608;49.288;8.130;2024-01-25T00:20:25;1.30;;;0.30;;
18949;SDS011;9608;49.288;8.130;2024-01-25T00:22:52;4.70;;;1.23;;
18949;SDS011;9608;49.288;8.130;2024-01-25T00:25:19;8.93;;;1.50;;
18949;SDS011;9608;49.288;8.130;2024-01-25T00:27:46;4.50;;;1.97;;
18949;SDS011;9608;49.288;8.130;2024-01-25T00:30:12;2.87;;;1.07;;
18949;SDS011;9608;49.288;8.130;2024-01-25T00:32:39;7.03;;;2.00;;
18949;SDS011;9608;49.288;8.130;2024-01-25T00:35:08;10.83;;;2.10;;
18949;SDS011;9608;49.288;8.130;2024-01-25T00:37:38;5.23;;;1.50;;
18949;SDS011;9608;49.288;8.130;2024-01-25T00:40:05;6.47;;;2.50;;
18949;SDS011;9608;49.288;8.130;2024-01-25T00:42:33;15.73;;;3.13;;
18949;SDS011;9608;49.288;8.130;2024-01-25T00:45:07;2.07;;;0.47;;
18949;SDS011;9608;49.288;8.130;2024-01-25T00:47:34;2.03;;;0.70;;
18949;SDS011;9608;49.288;8.130;2024-01-25T00:50:02;14.70;;;1.53;;
18949;SDS011;9608;49.288;8.130;2024-01-25T00:52:31;1.20;;;0.23;;
18949;SDS011;9608;49.288;8.130;2024-01-25T00:54:58;21.10;;;3.30;;
18949;SDS011;9608;49.288;8.130;2024-01-25T00:57:26;2.13;;;0.60;;
18949;SDS011;9608;49.288;8.130;2024-01-25T00:59:53;1.70;;;0.83;;
18949;SDS011;9608;49.288;8.130;2024-01-25T01:02:20;7.07;;;1.43;;
18949;SDS011;9608;49.288;8.130;2024-01-25T01:04:48;3.40;;;0.40;;
18949;SDS011;9608;49.288;8.130;2024-01-25T01:07:15;1.20;;;0.20;;
18949;SDS011;9608;49.288;8.130;2024-01-25T01:09:44;2.47;;;0.80;;
18949;SDS011;9608;49.288;8.130;2024-01-25T01:12:11;14.40;;;1.30;;
18949;SDS011;9608;49.288;8.130;2024-01-25T01:14:38;1.20;;;0.30;;
18949;SDS011;9608;49.288;8.130;2024-01-25T01:17:05;12.23;;;0.67;;
18949;SDS011;9608;49.288;8.130;2024-01-25T01:19:32;48.33;;;3.27;;
18949;SDS011;9608;49.288;8.130;2024-01-25T01:21:59;1.30;;;0.30;;
18949;SDS011;9608;49.288;8.130;2024-01-25T01:24:25;4.80;;;0.60;;
18949;SDS011;9608;49.288;8.130;2024-01-25T01:26:54;2.30;;;1.03;;
18949;SDS011;9608;49.288;8.130;2024-01-25T01:29:20;1.50;;;0.30;;
18949;SDS011;9608;49.288;8.130;2024-01-25T01:31:47;1.67;;;0.43;;
18949;SDS011;9608;49.288;8.130;2024-01-25T01:34:14;1.97;;;0.60;;
18949;SDS011;9608;49.288;8.130;2024-01-25T01:36:42;1.47;;;0.30;;
18949;SDS011;9608;49.288;8.130;2024-01-25T01:39:09;1.20;;;0.20;;
18949;SDS011;9608;49.288;8.130;2024-01-25T01:41:36;1.20;;;0.20;;
18949;SDS011;9608;49.288;8.130;2024-01-25T01:44:04;4.70;;;1.63;;
18949;SDS011;9608;49.288;8.130;2024-01-25T01:46:32;1.20;;;0.20;;
18949;SDS011;9608;49.288;8.130;2024-01-25T01:49:00;1.20;;;0.20;;
18949;SDS011;9608;49.288;8.130;2024-01-25T01:51:27;3.60;;;0.90;;
18949;SDS011;9608;49.288;8.130;2024-01-25T01:53:55;2.50;;;0.83;;
18949;SDS011;9608;49.288;8.130;2024-01-25T01:56:23;3.43;;;0.30;;
18949;SDS011;9608;49.288;8.130;2024-01-25T01:58:51;14.43;;;2.70;;
18949;SDS011;9608;49.288;8.130;2024-01-25T02:01:21;1.20;;;0.20;;
18949;SDS011;9608;49.288;8.130;2024-01-25T02:03:48;1.40;;;0.50;;
18949;SDS011;9608;49.288;8.130;2024-01-25T02:06:15;1.20;;;0.20;;
18949;SDS011;9608;49.288;8.130;2024-01-25T02:08:42;3.27;;;1.70;;
18949;SDS011;9608;49.288;8.130;2024-01-25T02:11:10;1.20;;;0.20;;
18949;SDS011;9608;49.288;8.130;2024-01-25T02:13:38;1.50;;;0.63;;
18949;SDS011;9608;49.288;8.130;2024-01-25T02:16:04;1.77;;;0.70;;
18949;SDS011;9608;49.288;8.130;2024-01-25T02:18:34;3.73;;;0.60;;
18949;SDS011;9608;49.288;8.130;2024-01-25T02:21:01;11.33;;;1.60;;
18949;SDS011;9608;49.288;8.130;2024-01-25T02:23:30;9.60;;;1.40;;
18949;SDS011;9608;49.288;8.130;2024-01-25T02:25:56;1.20;;;0.20;;
18949;SDS011;9608;49.288;8.130;2024-01-25T02:28:23;1.20;;;0.20;;
18949;SDS011;9608;49.288;8.130;2024-01-25T02:30:50;2.07;;;1.40;;
18949;SDS011;9608;49.288;8.130;2024-01-25T02:33:17;5.20;;;1.23;;
18949;SDS011;9608;49.288;8.130;2024-01-25T02:35:43;1.20;;;0.20;;
18949;SDS011;9608;49.288;8.130;2024-01-25T02:38:10;1.20;;;0.20;;
18949;SDS011;9608;49.288;8.130;2024-01-25T02:40:38;1.20;;;0.20;;
18949;SDS011;9608;49.288;8.130;2024-01-25T02:43:07;1.20;;;0.20;;
18949;SDS011;9608;49.288;8.130;2024-01-25T02:45:34;8.93;;;1.10;;
18949;SDS011;9608;49.288;8.130;2024-01-25T02:48:01;1.30;;;0.37;;
18949;SDS011;9608;49.288;8.130;2024-01-25T02:50:28;2.33;;;0.30;;
18949;SDS011;9608;49.288;8.130;2024-01-25T02:52:55;1.30;;;0.20;;
18949;SDS011;9608;49.288;8.130;2024-01-25T02:55:23;6.73;;;1.83;;
18949;SDS011;9608;49.288;8.130;2024-01-25T02:57:51;1.20;;;0.30;;
18949;SDS011;9608;49.288;8.130;2024-01-25T03:00:17;6.60;;;1.80;;
18949;SDS011;9608;49.288;8.130;2024-01-25T03:02:44;1.20;;;0.20;;
18949;SDS011;9608;49.288;8.130;2024-01-25T03:05:11;45.43;;;2.43;;
18949;SDS011;9608;49.288;8.130;2024-01-25T03:07:38;3.47;;;0.80;;
18949;SDS011;9608;49.288;8.130;2024-01-25T03:10:05;1.50;;;0.40;;
18949;SDS011;9608;49.288;8.130;2024-01-25T03:12:32;1.20;;;0.20;;
18949;SDS011;9608;49.288;8.130;2024-01-25T03:15:01;1.27;;;0.23;;
18949;SDS011;9608;49.288;8.130;2024-01-25T03:17:27;1.50;;;0.20;;
18949;SDS011;9608;49.288;8.130;2024-01-25T03:19:54;2.43;;;0.30;;
18949;SDS011;9608;49.288;8.130;2024-01-25T03:22:21;1.33;;;0.40;;
18949;SDS011;9608;49.288;8.130;2024-01-25T03:24:48;1.97;;;0.50;;
18949;SDS011;9608;49.288;8.130;2024-01-25T03:27:14;1.20;;;0.20;;
18949;SDS011;9608;49.288;8.130;2024-01-25T03:29:41;1.20;;;0.20;;
18949;SDS011;9608;49.288;8.130;2024-01-25T03:32:09;4.67;;;1.03;;
18949;SDS011;9608;49.288;8.130;2024-01-25T03:34:36;4.43;;;1.63;;
18949;SDS011;9608;49.288;8.130;2024-01-25T03:37:03;1.20;;;0.20;;
18949;SDS011;9608;49.288;8.130;2024-01-25T03:39:30;1.20;;;0.20;;
18949;SDS011;9608;49.288;8.130;2024-01-25T03:41:57;2.03;;;0.30;;
18949;SDS011;9608;49.288;8.130;2024-01-25T03:44:23;8.93;;;1.03;;
18949;SDS011;9608;49.288;8.130;2024-01-25T03:46:50;1.60;;;0.40;;
18949;SDS011;9608;49.288;8.130;2024-01-25T03:49:18;1.20;;;0.20;;
18949;SDS011;9608;49.288;8.130;2024-01-25T03:51:47;3.23;;;1.27;;
18949;SDS011;9608;49.288;8.130;2024-01-25T03:54:14;1.20;;;0.20;;
18949;SDS011;9608;49.288;8.130;2024-01-25T03:56:41;1.20;;;0.20;;
18949;SDS011;9608;49.288;8.130;2024-01-25T03:59:08;7.13;;;2.03;;
18949;SDS011;9608;49.288;8.130;2024-01-25T04:01:40;1.20;;;0.20;;
18949;SDS011;9608;49.288;8.130;2024-01-25T04:04:08;3.93;;;0.97;;
18949;SDS011;9608;49.288;8.130;2024-01-25T04:06:37;5.63;;;0.63;;
18949;SDS011;9608;49.288;8.130;2024-01-25T04:09:04;2.20;;;2.00;;
18949;SDS011;9608;49.288;8.130;2024-01-25T04:11:31;1.40;;;0.30;;
18949;SDS011;9608;49.288;8.130;2024-01-25T04:13:57;2.40;;;1.07;;
18949;SDS011;9608;49.288;8.130;2024-01-25T04:16:25;1.30;;;0.53;;
18949;SDS011;9608;49.288;8.130;2024-01-25T04:18:52;14.37;;;0.80;;
18949;SDS011;9608;49.288;8.130;2024-01-25T04:21:19;4.87;;;1.50;;
18949;SDS011;9608;49.288;8.130;2024-01-25T04:23:47;5.37;;;1.60;;
18949;SDS011;9608;49.288;8.130;2024-01-25T04:26:14;1.20;;;0.20;;
18949;SDS011;9608;49.288;8.130;2024-01-25T04:28:41;2.70;;;0.93;;
18949;SDS011;9608;49.288;8.130;2024-01-25T04:31:08;1.20;;;0.20;;
18949;SDS011;9608;49.288;8.130;2024-01-25T04:33:35;5.10;;;1.33;;
18949;SDS011;9608;49.288;8.130;2024-01-25T04:36:05;1.40;;;0.40;;
18949;SDS011;9608;49.288;8.130;2024-01-25T04:38:32;8.10;;;1.90;;
18949;SDS011;9608;49.288;8.130;2024-01-25T04:41:00;1.73;;;0.40;;
18949;SDS011;9608;49.288;8.130;2024-01-25T04:43:27;25.30;;;2.23;;
18949;SDS011;9608;49.288;8.130;2024-01-25T04:45:53;1.40;;;0.43;;
18949;SDS011;9608;49.288;8.130;2024-01-25T04:48:20;7.37;;;1.80;;
18949;SDS011;9608;49.288;8.130;2024-01-25T04:50:47;1.30;;;0.37;;
18949;SDS011;9608;49.288;8.130;2024-01-25T04:53:13;8.73;;;0.97;;
18949;SDS011;9608;49.288;8.130;2024-01-25T04:55:40;1.20;;;0.20;;
18949;SDS011;9608;49.288;8.130;2024-01-25T04:58:08;1.30;;;0.20;;
18949;SDS011;9608;49.288;8.130;2024-01-25T05:00:36;10.23;;;1.83;;
18949;SDS011;9608;49.288;8.130;2024-01-25T05:03:06;1.20;;;0.20;;
18949;SDS011;9608;49.288;8.130;2024-01-25T05:05:32;1.20;;;0.10;;
18949;SDS011;9608;49.288;8.130;2024-01-25T05:07:59;1.20;;;0.20;;
18949;SDS011;9608;49.288;8.130;2024-01-25T05:10:26;1.20;;;0.20;;
18949;SDS011;9608;49.288;8.130;2024-01-25T05:12:52;4.33;;;0.70;;
18949;SDS011;9608;49.288;8.130;2024-01-25T05:15:21;1.20;;;0.20;;
18949;SDS011;9608;49.288;8.130;2024-01-25T05:17:47;1.20;;;0.20;;
18949;SDS011;9608;49.288;8.130;2024-01-25T05:20:14;1.20;;;0.20;;
18949;SDS011;9608;49.288;8.130;2024-01-25T05:22:42;1.20;;;0.20;;
18949;SDS011;9608;49.288;8.130;2024-01-25T05:25:11;1.20;;;0.20;;
18949;SDS011;9608;49.288;8.130;2024-01-25T05:27:37;1.20;;;0.20;;
18949;SDS011;9608;49.288;8.130;2024-01-25T05:30:05;1.20;;;0.20;;
18949;SDS011;9608;49.288;8.130;2024-01-25T05:32:34;1.20;;;0.20;;
18949;SDS011;9608;49.288;8.130;2024-01-25T05:35:00;1.20;;;0.20;;
18949;SDS011;9608;49.288;8.130;2024-01-25T05:37:27;1.20;;;0.20;;
18949;SDS011;9608;49.288;8.130;2024-01-25T05:39:54;1.20;;;0.20;;
18949;SDS011;9608;49.288;8.130;2024-01-25T05:42:21;1.20;;;0.20;;
18949;SDS011;9608;49.288;8.130;2024-01-25T05:44:47;1.20;;;0.20;;
18949;SDS011;9608;49.288;8.130;2024-01-25T05:47:14;1.27;;;0.20;;
18949;SDS011;9608;49.288;8.130;2024-01-25T05:49:42;1.20;;;0.20;;
18949;SDS011;9608;49.288;8.130;2024-01-25T05:52:09;1.27;;;0.20;;
18949;SDS011;9608;49.288;8.130;2024-01-25T05:54:36;1.20;;;0.20;;
18949;SDS011;9608;49.288;8.130;2024-01-25T05:57:03;1.20;;;0.20;;
18949;SDS011;9608;49.288;8.130;2024-01-25T05:59:30;1.20;;;0.20;;
18949;SDS011;9608;49.288;8.130;2024-01-25T06:01:57;1.20;;;0.20;;
18949;SDS011;9608;49.288;8.130;2024-01-25T06:04:23;1.20;;;0.20;;
18949;SDS011;9608;49.288;8.130;2024-01-25T06:06:51;1.20;;;0.20;;
18949;SDS011;9608;49.288;8.130;2024-01-25T06:09:18;1.20;;;0.20;;
18949;SDS011;9608;49.288;8.130;2024-01-25T06:11:45;1.27;;;0.20;;
18949;SDS011;9608;49.288;8.130;2024-01-25T06:14:12;1.27;;;0.20;;
18949;SDS011;9608;49.288;8.130;2024-01-25T06:16:38;1.20;;;0.20;;
18949;SDS011;9608;49.288;8.130;2024-01-25T06:19:05;1.30;;;0.20;;
18949;SDS011;9608;49.288;8.130;2024-01-25T06:21:32;1.27;;;0.20;;
18949;SDS011;9608;49.288;8.130;2024-01-25T06:24:01;1.20;;;0.20;;
18949;SDS011;9608;49.288;8.130;2024-01-25T06:26:28;1.80;;;0.80;;
18949;SDS011;9608;49.288;8.130;2024-01-25T06:28:55;3.53;;;1.17;;
18949;SDS011;9608;49.288;8.130;2024-01-25T06:31:22;1.20;;;0.20;;
18949;SDS011;9608;49.288;8.130;2024-01-25T06:33:49;1.30;;;0.20;;
18949;SDS011;9608;49.288;8.130;2024-01-25T06:36:17;1.30;;;0.20;;
18949;SDS011;9608;49.288;8.130;2024-01-25T06:38:44;6.30;;;1.67;;
18949;SDS011;9608;49.288;8.130;2024-01-25T06:41:12;1.27;;;0.20;;
18949;SDS011;9608;49.288;8.130;2024-01-25T06:43:40;1.23;;;0.20;;
18949;SDS011;9608;49.288;8.130;2024-01-25T06:46:07;1.77;;;0.60;;
18949;SDS011;9608;49.288;8.130;2024-01-25T06:48:33;1.30;;;0.20;;
18949;SDS011;9608;49.288;8.130;2024-01-25T06:51:01;1.40;;;0.50;;
18949;SDS011;9608;49.288;8.130;2024-01-25T06:53:27;1.30;;;0.30;;
18949;SDS011;9608;49.288;8.130;2024-01-25T06:55:55;1.30;;;0.30;;
18949;SDS011;9608;49.288;8.130;2024-01-25T06:58:23;1.40;;;0.57;;
18949;SDS011;9608;49.288;8.130;2024-01-25T07:00:53;1.40;;;0.60;;
18949;SDS011;9608;49.288;8.130;2024-01-25T07:54:19;4.70;;;1.90;;
18949;SDS011;9608;49.288;8.130;2024-01-25T07:56:46;1.30;;;0.40;;
18949;SDS011;9608;49.288;8.130;2024-01-25T07:59:13;1.33;;;0.40;;
18949;SDS011;9608;49.288;8.130;2024-01-25T08:01:40;1.40;;;0.57;;
18949;SDS011;9608;49.288;8.130;2024-01-25T08:04:08;1.40;;;0.60;;
18949;SDS011;9608;49.288;8.130;2024-01-25T08:06:37;1.30;;;0.30;;
18949;SDS011;9608;49.288;8.130;2024-01-25T08:15:58;1.37;;;0.43;;
18949;SDS011;9608;49.288;8.130;2024-01-25T08:26:11;1.30;;;0.30;;
18949;SDS011;9608;49.288;8.130;2024-01-25T08:28:39;1.30;;;0.30;;
18949;SDS011;9608;49.288;8.130;2024-01-25T08:36:20;1.30;;;0.30;;
18949;SDS011;9608;49.288;8.130;2024-01-25T08:38:47;1.30;;;0.30;;
18949;SDS011;9608;49.288;8.130;2024-01-25T08:41:14;7.43;;;2.73;;
18949;SDS011;9608;49.288;8.130;2024-01-25T08:43:41;1.30;;;0.20;;
18949;SDS011;9608;49.288;8.130;2024-01-25T08:46:08;1.30;;;0.27;;
18949;SDS011;9608;49.288;8.130;2024-01-25T08:48:35;1.20;;;0.20;;
18949;SDS011;9608;49.288;8.130;2024-01-25T08:51:02;1.30;;;0.30;;
18949;SDS011;9608;49.288;8.130;2024-01-25T08:53:30;1.30;;;0.30;;
18949;SDS011;9608;49.288;8.130;2024-01-25T08:55:58;2.67;;;1.07;;
18949;SDS011;9608;49.288;8.130;2024-01-25T08:58:26;3.33;;;1.90;;
18949;SDS011;9608;49.288;8.130;2024-01-25T09:00:53;4.40;;;1.23;;
18949;SDS011;9608;49.288;8.130;2024-01-25T09:03:21;1.60;;;0.87;;
18949;SDS011;9608;49.288;8.130;2024-01-25T09:05:48;1.70;;;0.90;;
18949;SDS011;9608;49.288;8.130;2024-01-25T09:08:15;1.20;;;0.30;;
18949;SDS011;9608;49.288;8.130;2024-01-25T09:10:44;1.30;;;0.30;;
18949;SDS011;9608;49.288;8.130;2024-01-25T09:13:10;1.20;;;0.30;;
18949;SDS011;9608;49.288;8.130;2024-01-25T09:15:37;5.83;;;2.20;;
18949;SDS011;9608;49.288;8.130;2024-01-25T09:18:05;1.30;;;0.30;;
18949;SDS011;9608;49.288;8.130;2024-01-25T09:20:32;5.83;;;1.73;;
18949;SDS011;9608;49.288;8.130;2024-01-25T09:23:00;3.00;;;0.37;;
18949;SDS011;9608;49.288;8.130;2024-01-25T09:25:28;4.40;;;0.40;;
18949;SDS011;9608;49.288;8.130;2024-01-25T09:27:56;4.55;;;0.40;;
18949;SDS011;9608;49.288;8.130;2024-01-25T09:30:23;3.10;;;0.40;;
18949;SDS011;9608;49.288;8.130;2024-01-25T09:32:52;5.63;;;1.03;;
18949;SDS011;9608;49.288;8.130;2024-01-25T09:35:18;3.22;;;0.40;;
18949;SDS011;9608;49.288;8.130;2024-01-25T09:37:45;1.50;;;0.40;;
18949;SDS011;9608;49.288;8.130;2024-01-25T09:40:12;1.57;;;0.30;;
18949;SDS011;9608;49.288;8.130;2024-01-25T09:42:39;5.30;;;0.80;;
18949;SDS011;9608;49.288;8.130;2024-01-25T09:45:08;6.13;;;0.70;;
18949;SDS011;9608;49.288;8.130;2024-01-25T09:47:42;1.70;;;0.60;;
18949;SDS011;9608;49.288;8.130;2024-01-25T09:50:09;1.60;;;0.40;;
18949;SDS011;9608;49.288;8.130;2024-01-25T09:52:36;15.50;;;2.73;;
18949;SDS011;9608;49.288;8.130;2024-01-25T09:55:05;1.80;;;0.50;;
18949;SDS011;9608;49.288;8.130;2024-01-25T09:57:35;10.43;;;1.90;;
18949;SDS011;9608;49.288;8.130;2024-01-25T10:00:03;5.13;;;0.70;;
18949;SDS011;9608;49.288;8.130;2024-01-25T10:02:33;1.83;;;0.40;;
18949;SDS011;9608;49.288;8.130;2024-01-25T10:05:00;5.00;;;0.80;;
18949;SDS011;9608;49.288;8.130;2024-01-25T10:07:37;6.50;;;0.97;;
18949;SDS011;9608;49.288;8.130;2024-01-25T10:10:05;1.77;;;0.40;;
18949;SDS011;9608;49.288;8.130;2024-01-25T10:12:32;2.10;;;0.90;;
18949;SDS011;9608;49.288;8.130;2024-01-25T10:15:00;1.70;;;0.40;;
18949;SDS011;9608;49.288;8.130;2024-01-25T10:17:33;1.70;;;0.40;;
18949;SDS011;9608;49.288;8.130;2024-01-25T10:20:00;4.80;;;1.13;;
18949;SDS011;9608;49.288;8.130;2024-01-25T10:22:28;7.20;;;0.60;;
18949;SDS011;9608;49.288;8.130;2024-01-25T10:24:55;6.40;;;0.50;;
18949;SDS011;9608;49.288;8.130;2024-01-25T10:27:21;11.37;;;1.90;;
18949;SDS011;9608;49.288;8.130;2024-01-25T10:29:50;4.80;;;0.40;;
18949;SDS011;9608;49.288;8.130;2024-01-25T10:32:18;4.30;;;0.50;;
18949;SDS011;9608;49.288;8.130;2024-01-25T10:34:46;11.27;;;0.57;;
18949;SDS011;9608;49.288;8.130;2024-01-25T10:37:15;6.10;;;0.80;;
18949;SDS011;9608;49.288;8.130;2024-01-25T10:39:42;5.20;;;1.50;;
18949;SDS011;9608;49.288;8.130;2024-01-25T10:42:11;1.30;;;0.37;;
18949;SDS011;9608;49.288;8.130;2024-01-25T10:44:38;1.70;;;0.43;;
18949;SDS011;9608;49.288;8.130;2024-01-25T10:47:06;1.30;;;0.47;;
18949;SDS011;9608;49.288;8.130;2024-01-25T10:49:33;1.30;;;0.40;;
18949;SDS011;9608;49.288;8.130;2024-01-25T10:52:03;4.33;;;1.97;;
18949;SDS011;9608;49.288;8.130;2024-01-25T10:54:31;1.40;;;0.70;;
18949;SDS011;9608;49.288;8.130;2024-01-25T10:56:58;2.60;;;1.27;;
18949;SDS011;9608;49.288;8.130;2024-01-25T10:59:25;1.40;;;0.50;;
18949;SDS011;9608;49.288;8.130;2024-01-25T11:01:54;1.30;;;0.40;;
18949;SDS011;9608;49.288;8.130;2024-01-25T11:04:21;11.17;;;2.00;;
18949;SDS011;9608;49.288;8.130;2024-01-25T11:06:50;2.03;;;0.70;;
18949;SDS011;9608;49.288;8.130;2024-01-25T11:09:19;1.30;;;0.50;;
18949;SDS011;9608;49.288;8.130;2024-01-25T11:11:47;16.00;;;2.23;;
18949;SDS011;9608;49.288;8.130;2024-01-25T11:14:14;11.43;;;2.33;;
18949;SDS011;9608;49.288;8.130;2024-01-25T11:16:43;22.63;;;2.63;;
18949;SDS011;9608;49.288;8.130;2024-01-25T11:19:16;6.20;;;1.73;;
18949;SDS011;9608;49.288;8.130;2024-01-25T11:21:45;4.67;;;1.53;;
18949;SDS011;9608;49.288;8.130;2024-01-25T11:24:13;450.80;;;238.90;;
18949;SDS011;9608;49.288;8.130;2024-01-25T11:26:41;1095.13;;;179.97;;
18949;SDS011;9608;49.288;8.130;2024-01-25T11:29:10;0.90;;;0.40;;
18949;SDS011;9608;49.288;8.130;2024-01-25T11:31:41;1999.90;;;999.90;;
18949;SDS011;9608;49.288;8.130;2024-01-25T11:34:09;1999.90;;;999.90;;
18949;SDS011;9608;49.288;8.130;2024-01-25T11:36:36;1999.90;;;999.90;;
18949;SDS011;9608;49.288;8.130;2024-01-25T11:39:04;1999.90;;;999.90;;
18949;SDS011;9608;49.288;8.130;2024-01-25T11:41:32;1999.90;;;999.90;;
18949;SDS011;9608;49.288;8.130;2024-01-25T11:44:00;1999.90;;;999.90;;
18949;SDS011;9608;49.288;8.130;2024-01-25T11:46:27;1382.87;;;679.17;;
18949;SDS011;9608;49.288;8.130;2024-01-25T11:48:54;129.83;;;27.90;;
18949;SDS011;9608;49.288;8.130;2024-01-25T11:51:21;1999.90;;;999.90;;
18949;SDS011;9608;49.288;8.130;2024-01-25T11:53:48;1999.90;;;999.90;;
18949;SDS011;9608;49.288;8.130;2024-01-25T11:56:16;1999.90;;;999.90;;
18949;SDS011;9608;49.288;8.130;2024-01-25T11:58:46;1999.90;;;999.90;;
18949;SDS011;9608;49.288;8.130;2024-01-25T12:01:15;1999.90;;;999.90;;
18949;SDS011;9608;49.288;8.130;2024-01-25T12:03:42;1999.90;;;999.90;;
18949;SDS011;9608;49.288;8.130;2024-01-25T12:06:09;166.20;;;131.30;;
18949;SDS011;9608;49.288;8.130;2024-01-25T12:08:36;94.53;;;44.50;;
18949;SDS011;9608;49.288;8.130;2024-01-25T12:11:03;135.23;;;119.47;;
18949;SDS011;9608;49.288;8.130;2024-01-25T12:13:32;835.23;;;755.50;;
18949;SDS011;9608;49.288;8.130;2024-01-25T12:16:02;1999.90;;;999.90;;
18949;SDS011;9608;49.288;8.130;2024-01-25T12:18:31;81.30;;;2.30;;
18949;SDS011;9608;49.288;8.130;2024-01-25T12:21:00;36.33;;;0.70;;
18949;SDS011;9608;49.288;8.130;2024-01-25T12:23:31;1373.07;;;673.73;;
18949;SDS011;9608;49.288;8.130;2024-01-25T12:25:59;1999.90;;;999.90;;
18949;SDS011;9608;49.288;8.130;2024-01-25T12:28:33;91.70;;;8.77;;
18949;SDS011;9608;49.288;8.130;2024-01-25T12:31:00;121.60;;;31.10;;
18949;SDS011;9608;49.288;8.130;2024-01-25T12:33:28;76.43;;;6.20;;
18949;SDS011;9608;49.288;8.130;2024-01-25T12:35:56;6.07;;;0.30;;
18949;SDS011;9608;49.288;8.130;2024-01-25T12:38:23;39.80;;;1.63;;
18949;SDS011;9608;49.288;8.130;2024-01-25T12:40:51;36.23;;;4.37;;
18949;SDS011;9608;49.288;8.130;2024-01-25T12:43:18;27.57;;;0.60;;
18949;SDS011;9608;49.288;8.130;2024-01-25T12:45:46;23.67;;;0.50;;
18949;SDS011;9608;49.288;8.130;2024-01-25T12:48:13;27.33;;;2.10;;
18949;SDS011;9608;49.288;8.130;2024-01-25T12:50:40;19.87;;;2.10;;
18949;SDS011;9608;49.288;8.130;2024-01-25T12:53:09;261.97;;;68.63;;
18949;SDS011;9608;49.288;8.130;2024-01-25T12:55:37;72.30;;;1.40;;
18949;SDS011;9608;49.288;8.130;2024-01-25T12:58:04;65.87;;;1.20;;
18949;SDS011;9608;49.288;8.130;2024-01-25T13:00:31;1999.90;;;999.90;;
18949;SDS011;9608;49.288;8.130;2024-01-25T13:02:58;1999.90;;;999.90;;
18949;SDS011;9608;49.288;8.130;2024-01-25T13:05:26;1999.90;;;999.90;;
18949;SDS011;9608;49.288;8.130;2024-01-25T13:07:54;1999.90;;;999.90;;
18949;SDS011;9608;49.288;8.130;2024-01-25T13:10:22;1999.90;;;999.90;;
18949;SDS011;9608;49.288;8.130;2024-01-25T13:12:49;1999.90;;;999.90;;
18949;SDS011;9608;49.288;8.130;2024-01-25T13:15:15;1999.90;;;999.90;;
18949;SDS011;9608;49.288;8.130;2024-01-25T13:20:11;1999.90;;;999.90;;
18949;SDS011;9608;49.288;8.130;2024-01-25T13:22:38;1999.90;;;999.90;;
18949;SDS011;9608;49.288;8.130;2024-01-25T13:25:05;1999.90;;;999.90;;
18949;SDS011;9608;49.288;8.130;2024-01-25T13:27:33;1999.90;;;999.90;;
18949;SDS011;9608;49.288;8.130;2024-01-25T13:30:00;1999.90;;;999.90;;
18949;SDS011;9608;49.288;8.130;2024-01-25T13:32:26;1999.90;;;999.90;;
18949;SDS011;9608;49.288;8.130;2024-01-25T13:34:53;1999.90;;;999.90;;
18949;SDS011;9608;49.288;8.130;2024-01-25T13:37:20;1999.90;;;999.90;;
18949;SDS011;9608;49.288;8.130;2024-01-25T13:39:47;1999.90;;;999.90;;
18949;SDS011;9608;49.288;8.130;2024-01-25T13:42:14;1999.90;;;999.90;;
18949;SDS011;9608;49.288;8.130;2024-01-25T13:44:43;1999.90;;;999.90;;
18949;SDS011;9608;49.288;8.130;2024-01-25T13:47:10;159.93;;;41.37;;
18949;SDS011;9608;49.288;8.130;2024-01-25T13:49:36;125.43;;;22.07;;
18949;SDS011;9608;49.288;8.130;2024-01-25T13:52:04;122.90;;;21.70;;
18949;SDS011;9608;49.288;8.130;2024-01-25T13:54:31;120.20;;;19.00;;
18949;SDS011;9608;49.288;8.130;2024-01-25T13:56:58;118.37;;;17.23;;
18949;SDS011;9608;49.288;8.130;2024-01-25T13:59:25;119.10;;;18.80;;
18949;SDS011;9608;49.288;8.130;2024-01-25T14:01:53;117.80;;;16.93;;
18949;SDS011;9608;49.288;8.130;2024-01-25T14:04:19;121.40;;;19.83;;
18949;SDS011;9608;49.288;8.130;2024-01-25T14:06:46;115.27;;;13.50;;
18949;SDS011;9608;49.288;8.130;2024-01-25T14:09:13;1999.90;;;999.90;;
18949;SDS011;9608;49.288;8.130;2024-01-25T14:11:40;1999.90;;;999.90;;
18949;SDS011;9608;49.288;8.130;2024-01-25T14:14:07;118.90;;;18.60;;
18949;SDS011;9608;49.288;8.130;2024-01-25T14:16:35;104.07;;;8.83;;
18949;SDS011;9608;49.288;8.130;2024-01-25T14:19:04;109.60;;;7.33;;
18949;SDS011;9608;49.288;8.130;2024-01-25T14:21:31;96.10;;;6.00;;
18949;SDS011;9608;49.288;8.130;2024-01-25T14:23:58;92.60;;;4.90;;
18949;SDS011;9608;49.288;8.130;2024-01-25T14:26:25;79.70;;;8.00;;
18949;SDS011;9608;49.288;8.130;2024-01-25T14:28:51;1999.90;;;999.90;;
18949;SDS011;9608;49.288;8.130;2024-01-25T14:31:18;1999.90;;;999.90;;
18949;SDS011;9608;49.288;8.130;2024-01-25T14:33:45;1999.90;;;999.90;;
18949;SDS011;9608;49.288;8.130;2024-01-25T14:36:13;1999.90;;;999.90;;
18949;SDS011;9608;49.288;8.130;2024-01-25T14:38:40;1999.90;;;999.90;;
18949;SDS011;9608;49.288;8.130;2024-01-25T14:41:07;1999.90;;;999.90;;
18949;SDS011;9608;49.288;8.130;2024-01-25T14:43:36;1999.90;;;999.90;;
18949;SDS011;9608;49.288;8.130;2024-01-25T14:46:03;1999.90;;;999.90;;
18949;SDS011;9608;49.288;8.130;2024-01-25T14:48:30;1999.90;;;999.90;;
18949;SDS011;9608;49.288;8.130;2024-01-25T14:50:58;1999.90;;;999.90;;
18949;SDS011;9608;49.288;8.130;2024-01-25T14:53:26;1999.90;;;999.90;;
18949;SDS011;9608;49.288;8.130;2024-01-25T14:55:53;1999.90;;;999.90;;
18949;SDS011;9608;49.288;8.130;2024-01-25T14:58:21;1999.90;;;999.90;;
18949;SDS011;9608;49.288;8.130;2024-01-25T15:00:48;1999.90;;;999.90;;
18949;SDS011;9608;49.288;8.130;2024-01-25T15:03:16;132.80;;;25.40;;
18949;SDS011;9608;49.288;8.130;2024-01-25T15:05:43;105.60;;;10.10;;
18949;SDS011;9608;49.288;8.130;2024-01-25T15:08:10;101.47;;;7.00;;
18949;SDS011;9608;49.288;8.130;2024-01-25T15:10:39;95.87;;;7.70;;
18949;SDS011;9608;49.288;8.130;2024-01-25T15:13:06;79.33;;;4.03;;
18949;SDS011;9608;49.288;8.130;2024-01-25T15:15:33;73.90;;;1.80;;
18949;SDS011;9608;49.288;8.130;2024-01-25T15:18:00;67.50;;;1.10;;
18949;SDS011;9608;49.288;8.130;2024-01-25T15:20:28;62.87;;;1.00;;
18949;SDS011;9608;49.288;8.130;2024-01-25T15:22:56;60.73;;;0.93;;
18949;SDS011;9608;49.288;8.130;2024-01-25T15:25:25;58.57;;;0.87;;
18949;SDS011;9608;49.288;8.130;2024-01-25T15:27:53;108.10;;;9.40;;
18949;SDS011;9608;49.288;8.130;2024-01-25T15:30:20;106.00;;;8.10;;
18949;SDS011;9608;49.288;8.130;2024-01-25T15:32:47;224.87;;;42.17;;
18949;SDS011;9608;49.288;8.130;2024-01-25T15:35:14;114.17;;;11.00;;
18949;SDS011;9608;49.288;8.130;2024-01-25T15:37:41;115.07;;;11.00;;
18949;SDS011;9608;49.288;8.130;2024-01-25T15:40:08;115.97;;;11.93;;
18949;SDS011;9608;49.288;8.130;2024-01-25T15:42:37;117.07;;;11.97;;
18949;SDS011;9608;49.288;8.130;2024-01-25T15:45:06;114.77;;;11.40;;
18949;SDS011;9608;49.288;8.130;2024-01-25T15:47:33;117.87;;;12.90;;
18949;SDS011;9608;49.288;8.130;2024-01-25T15:50:00;118.00;;;12.90;;
18949;SDS011;9608;49.288;8.130;2024-01-25T15:52:30;118.97;;;13.53;;
18949;SDS011;9608;49.288;8.130;2024-01-25T15:54:56;118.20;;;13.00;;
18949;SDS011;9608;49.288;8.130;2024-01-25T15:57:23;118.57;;;12.90;;
18949;SDS011;9608;49.288;8.130;2024-01-25T15:59:50;118.67;;;12.60;;